sensor_id;sensor_type;location;lat;lon;timestamp;pressure;altitude;pressure_sealevel;temperature;humidity
60373;BME280;46216;52.220;5.134;2023-04-26T00:01:42;102107.63;;;5.39;100.00
60373;BME280;46216;52.220;5.134;2023-04-26T00:04:08;102106.06;;;5.32;100.00
60373;BME280;46216;52.220;5.134;2023-04-26T00:06:33;102114.16;;;5.27;100.00
60373;BME280;46216;52.220;5.134;2023-04-26T00:09:01;102111.69;;;5.21;100.00
60373;BME280;46216;52.220;5.134;2023-04-26T00:11:27;102114.47;;;5.16;100.00
60373;BME280;46216;52.220;5.134;2023-04-26T00:13:52;102108.44;;;5.11;100.00
60373;BME280;46216;52.220;5.134;2023-04-26T00:16:18;102121.75;;;5.08;100.00
60373;BME280;46216;52.220;5.134;2023-04-26T00:18:44;102122.78;;;5.03;100.00
60373;BME280;46216;52.220;5.134;2023-04-26T00:21:12;102114.06;;;4.99;100.00
60373;BME280;46216;52.220;5.134;2023-04-26T00:23:37;102116.94;;;4.93;100.00
60373;BME280;46216;52.220;5.134;2023-04-26T00:26:03;102109.94;;;4.90;100.00
60373;BME280;46216;52.220;5.134;2023-04-26T00:28:28;102117.09;;;4.87;100.00
60373;BME280;46216;52.220;5.134;2023-04-26T00:30:54;102110.16;;;4.83;100.00
60373;BME280;46216;52.220;5.134;2023-04-26T00:33:22;102109.41;;;4.78;100.00
60373;BME280;46216;52.220;5.134;2023-04-26T00:35:48;102109.56;;;4.73;100.00
60373;BME280;46216;52.220;5.134;2023-04-26T00:38:13;102104.38;;;4.68;100.00
60373;BME280;46216;52.220;5.134;2023-04-26T00:40:39;102113.38;;;4.63;100.00
60373;BME280;46216;52.220;5.134;2023-04-26T00:43:04;102109.94;;;4.59;100.00
60373;BME280;46216;52.220;5.134;2023-04-26T00:45:30;102112.69;;;4.55;100.00
60373;BME280;46216;52.220;5.134;2023-04-26T00:47:57;102118.94;;;4.52;100.00
60373;BME280;46216;52.220;5.134;2023-04-26T00:50:25;102115.53;;;4.47;100.00
60373;BME280;46216;52.220;5.134;2023-04-26T00:52:51;102115.63;;;4.44;100.00
60373;BME280;46216;52.220;5.134;2023-04-26T00:55:17;102113.03;;;4.42;100.00
60373;BME280;46216;52.220;5.134;2023-04-26T00:57:44;102114.81;;;4.42;100.00
60373;BME280;46216;52.220;5.134;2023-04-26T01:00:10;102109.63;;;4.37;100.00
60373;BME280;46216;52.220;5.134;2023-04-26T01:02:36;102114.97;;;4.36;100.00
60373;BME280;46216;52.220;5.134;2023-04-26T01:05:02;102106.28;;;4.32;100.00
60373;BME280;46216;52.220;5.134;2023-04-26T01:07:28;102110.75;;;4.29;100.00
60373;BME280;46216;52.220;5.134;2023-04-26T01:09:55;102113.47;;;4.25;100.00
60373;BME280;46216;52.220;5.134;2023-04-26T01:12:21;102109.19;;;4.21;100.00
60373;BME280;46216;52.220;5.134;2023-04-26T01:14:47;102116.34;;;4.16;100.00
60373;BME280;46216;52.220;5.134;2023-04-26T01:17:13;102112.88;;;4.14;100.00
60373;BME280;46216;52.220;5.134;2023-04-26T01:19:48;102109.50;;;4.09;100.00
60373;BME280;46216;52.220;5.134;2023-04-26T01:22:13;102113.13;;;4.05;100.00
60373;BME280;46216;52.220;5.134;2023-04-26T01:24:41;102116.63;;;4.04;100.00
60373;BME280;46216;52.220;5.134;2023-04-26T01:27:07;102117.59;;;4.01;100.00
60373;BME280;46216;52.220;5.134;2023-04-26T01:29:33;102118.59;;;3.97;100.00
60373;BME280;46216;52.220;5.134;2023-04-26T01:31:58;102123.03;;;3.95;100.00
60373;BME280;46216;52.220;5.134;2023-04-26T01:34:24;102119.56;;;3.93;100.00
60373;BME280;46216;52.220;5.134;2023-04-26T01:36:49;102124.91;;;3.90;100.00
60373;BME280;46216;52.220;5.134;2023-04-26T01:39:14;102117.09;;;3.86;100.00
60373;BME280;46216;52.220;5.134;2023-04-26T01:41:40;102126.88;;;3.82;100.00
60373;BME280;46216;52.220;5.134;2023-04-26T01:44:05;102125.22;;;3.78;100.00
60373;BME280;46216;52.220;5.134;2023-04-26T01:46:31;102119.13;;;3.74;100.00
60373;BME280;46216;52.220;5.134;2023-04-26T01:48:56;102119.22;;;3.71;100.00
60373;BME280;46216;52.220;5.134;2023-04-26T01:51:24;102112.22;;;3.69;100.00
60373;BME280;46216;52.220;5.134;2023-04-26T01:53:49;102107.94;;;3.65;100.00
60373;BME280;46216;52.220;5.134;2023-04-26T01:56:15;102113.22;;;3.63;100.00
60373;BME280;46216;52.220;5.134;2023-04-26T01:58:40;102112.50;;;3.58;100.00
60373;BME280;46216;52.220;5.134;2023-04-26T02:01:07;102110.84;;;3.52;100.00
60373;BME280;46216;52.220;5.134;2023-04-26T02:03:33;102119.72;;;3.50;100.00
60373;BME280;46216;52.220;5.134;2023-04-26T02:05:59;102115.41;;;3.46;100.00
60373;BME280;46216;52.220;5.134;2023-04-26T02:08:24;102120.72;;;3.44;100.00
60373;BME280;46216;52.220;5.134;2023-04-26T02:10:49;102117.28;;;3.41;100.00
60373;BME280;46216;52.220;5.134;2023-04-26T02:13:14;102114.66;;;3.39;100.00
60373;BME280;46216;52.220;5.134;2023-04-26T02:15:40;102115.63;;;3.37;100.00
60373;BME280;46216;52.220;5.134;2023-04-26T02:18:06;102116.50;;;3.36;100.00
60373;BME280;46216;52.220;5.134;2023-04-26T02:20:32;102118.38;;;3.30;100.00
60373;BME280;46216;52.220;5.134;2023-04-26T02:22:57;102119.28;;;3.29;100.00
60373;BME280;46216;52.220;5.134;2023-04-26T02:25:23;102122.84;;;3.27;100.00
60373;BME280;46216;52.220;5.134;2023-04-26T02:27:49;102122.06;;;3.23;100.00
60373;BME280;46216;52.220;5.134;2023-04-26T02:30:14;102127.34;;;3.22;100.00
60373;BME280;46216;52.220;5.134;2023-04-26T02:32:40;102120.38;;;3.19;100.00
60373;BME280;46216;52.220;5.134;2023-04-26T02:35:06;102119.56;;;3.17;100.00
60373;BME280;46216;52.220;5.134;2023-04-26T02:37:32;102123.97;;;3.17;100.00
60373;BME280;46216;52.220;5.134;2023-04-26T02:39:58;102126.66;;;3.14;100.00
60373;BME280;46216;52.220;5.134;2023-04-26T02:42:23;102118.75;;;3.12;100.00
60373;BME280;46216;52.220;5.134;2023-04-26T02:44:49;102114.50;;;3.06;100.00
60373;BME280;46216;52.220;5.134;2023-04-26T02:47:14;102123.28;;;3.07;100.00
60373;BME280;46216;52.220;5.134;2023-04-26T02:49:40;102118.97;;;3.03;100.00
60373;BME280;46216;52.220;5.134;2023-04-26T02:52:05;102121.66;;;3.00;100.00
60373;BME280;46216;52.220;5.134;2023-04-26T02:54:30;102117.38;;;2.94;100.00
60373;BME280;46216;52.220;5.134;2023-04-26T02:56:56;102119.16;;;2.94;100.00
60373;BME280;46216;52.220;5.134;2023-04-26T02:59:22;102114.81;;;2.93;100.00
60373;BME280;46216;52.220;5.134;2023-04-26T03:01:47;102112.28;;;2.87;100.00
60373;BME280;46216;52.220;5.134;2023-04-26T03:04:13;102114.13;;;2.81;100.00
60373;BME280;46216;52.220;5.134;2023-04-26T03:06:39;102107.13;;;2.80;100.00
60373;BME280;46216;52.220;5.134;2023-04-26T03:09:05;102112.47;;;2.77;100.00
60373;BME280;46216;52.220;5.134;2023-04-26T03:11:31;102109.88;;;2.74;100.00
60373;BME280;46216;52.220;5.134;2023-04-26T03:13:56;102107.31;;;2.71;100.00
60373;BME280;46216;52.220;5.134;2023-04-26T03:16:22;102110.00;;;2.68;100.00
60373;BME280;46216;52.220;5.134;2023-04-26T03:18:48;102106.66;;;2.62;100.00
60373;BME280;46216;52.220;5.134;2023-04-26T03:21:13;102116.22;;;2.64;100.00
60373;BME280;46216;52.220;5.134;2023-04-26T03:23:39;102111.00;;;2.61;100.00
60373;BME280;46216;52.220;5.134;2023-04-26T03:26:04;102116.31;;;2.59;100.00
60373;BME280;46216;52.220;5.134;2023-04-26T03:28:29;102122.50;;;2.57;100.00
60373;BME280;46216;52.220;5.134;2023-04-26T03:30:55;102111.22;;;2.52;100.00
60373;BME280;46216;52.220;5.134;2023-04-26T03:33:20;102113.00;;;2.50;100.00
60373;BME280;46216;52.220;5.134;2023-04-26T03:35:45;102106.00;;;2.49;100.00
60373;BME280;46216;52.220;5.134;2023-04-26T03:38:11;102102.56;;;2.44;100.00
60373;BME280;46216;52.220;5.134;2023-04-26T03:40:36;102106.97;;;2.45;100.00
60373;BME280;46216;52.220;5.134;2023-04-26T03:43:02;102108.75;;;2.41;100.00
60373;BME280;46216;52.220;5.134;2023-04-26T03:45:27;102110.56;;;2.39;100.00
60373;BME280;46216;52.220;5.134;2023-04-26T03:47:53;102111.47;;;2.36;100.00
60373;BME280;46216;52.220;5.134;2023-04-26T03:50:18;102103.69;;;2.32;100.00
60373;BME280;46216;52.220;5.134;2023-04-26T03:52:43;102106.28;;;2.33;100.00
60373;BME280;46216;52.220;5.134;2023-04-26T03:55:09;102110.66;;;2.34;100.00
60373;BME280;46216;52.220;5.134;2023-04-26T03:57:36;102110.66;;;2.33;100.00
60373;BME280;46216;52.220;5.134;2023-04-26T04:00:01;102115.06;;;2.32;100.00
60373;BME280;46216;52.220;5.134;2023-04-26T04:02:30;102112.41;;;2.34;100.00
60373;BME280;46216;52.220;5.134;2023-04-26T04:04:57;102108.03;;;2.34;100.00
60373;BME280;46216;52.220;5.134;2023-04-26T04:07:22;102110.66;;;2.34;100.00
60373;BME280;46216;52.220;5.134;2023-04-26T04:09:48;102108.09;;;2.31;100.00
60373;BME280;46216;52.220;5.134;2023-04-26T04:12:13;102103.69;;;2.30;100.00
60373;BME280;46216;52.220;5.134;2023-04-26T04:14:38;102100.25;;;2.27;100.00
60373;BME280;46216;52.220;5.134;2023-04-26T04:17:04;102106.38;;;2.27;100.00
60373;BME280;46216;52.220;5.134;2023-04-26T04:19:29;102109.03;;;2.26;100.00
60373;BME280;46216;52.220;5.134;2023-04-26T04:21:54;102109.03;;;2.26;100.00
60373;BME280;46216;52.220;5.134;2023-04-26T04:24:20;102104.66;;;2.26;100.00
60373;BME280;46216;52.220;5.134;2023-04-26T04:26:45;102106.38;;;2.27;100.00
60373;BME280;46216;52.220;5.134;2023-04-26T04:29:11;102104.59;;;2.29;100.00
60373;BME280;46216;52.220;5.134;2023-04-26T04:31:36;102113.34;;;2.31;100.00
60373;BME280;46216;52.220;5.134;2023-04-26T04:34:03;102108.09;;;2.31;100.00
60373;BME280;46216;52.220;5.134;2023-04-26T04:36:29;102108.91;;;2.33;100.00
60373;BME280;46216;52.220;5.134;2023-04-26T04:38:55;102106.28;;;2.33;100.00
60373;BME280;46216;52.220;5.134;2023-04-26T04:41:20;102117.66;;;2.35;100.00
60373;BME280;46216;52.220;5.134;2023-04-26T04:43:46;102103.56;;;2.38;100.00
60373;BME280;46216;52.220;5.134;2023-04-26T04:46:12;102119.25;;;2.43;100.00
60373;BME280;46216;52.220;5.134;2023-04-26T04:48:37;102108.69;;;2.44;100.00
60373;BME280;46216;52.220;5.134;2023-04-26T04:51:03;102114.78;;;2.48;100.00
60373;BME280;46216;52.220;5.134;2023-04-26T04:53:29;102114.72;;;2.51;100.00
60373;BME280;46216;52.220;5.134;2023-04-26T04:55:55;102112.88;;;2.56;100.00
60373;BME280;46216;52.220;5.134;2023-04-26T04:58:21;102119.81;;;2.60;100.00
60373;BME280;46216;52.220;5.134;2023-04-26T05:00:47;102118.03;;;2.62;100.00
60373;BME280;46216;52.220;5.134;2023-04-26T05:03:13;102124.09;;;2.66;100.00
60373;BME280;46216;52.220;5.134;2023-04-26T05:05:39;102126.59;;;2.73;100.00
60373;BME280;46216;52.220;5.134;2023-04-26T05:08:05;102118.59;;;2.78;100.00
60373;BME280;46216;52.220;5.134;2023-04-26T05:10:33;102116.69;;;2.86;100.00
60373;BME280;46216;52.220;5.134;2023-04-26T05:12:59;102121.78;;;2.94;100.00
60373;BME280;46216;52.220;5.134;2023-04-26T05:15:24;102111.09;;;3.01;100.00
60373;BME280;46216;52.220;5.134;2023-04-26T05:17:50;102119.59;;;3.14;100.00
60373;BME280;46216;52.220;5.134;2023-04-26T05:20:15;102116.66;;;3.29;100.00
60373;BME280;46216;52.220;5.134;2023-04-26T05:22:41;102123.28;;;3.46;100.00
60373;BME280;46216;52.220;5.134;2023-04-26T05:25:07;102131.66;;;3.65;100.00
60373;BME280;46216;52.220;5.134;2023-04-26T05:27:33;102131.28;;;3.82;100.00
60373;BME280;46216;52.220;5.134;2023-04-26T05:29:59;102128.19;;;4.00;100.00
60373;BME280;46216;52.220;5.134;2023-04-26T05:32:25;102121.63;;;4.16;100.00
60373;BME280;46216;52.220;5.134;2023-04-26T05:34:51;102131.78;;;4.32;100.00
60373;BME280;46216;52.220;5.134;2023-04-26T05:37:16;102126.19;;;4.44;100.00
60373;BME280;46216;52.220;5.134;2023-04-26T05:39:41;102130.19;;;4.59;100.00
60373;BME280;46216;52.220;5.134;2023-04-26T05:42:08;102121.00;;;4.72;100.00
60373;BME280;46216;52.220;5.134;2023-04-26T05:44:33;102126.81;;;4.85;100.00
60373;BME280;46216;52.220;5.134;2023-04-26T05:46:58;102128.22;;;4.98;100.00
60373;BME280;46216;52.220;5.134;2023-04-26T05:49:24;102129.59;;;5.11;100.00
60373;BME280;46216;52.220;5.134;2023-04-26T05:51:49;102132.66;;;5.27;100.00
60373;BME280;46216;52.220;5.134;2023-04-26T05:54:14;102131.31;;;5.42;100.00
60373;BME280;46216;52.220;5.134;2023-04-26T05:56:40;102135.31;;;5.55;100.00
60373;BME280;46216;52.220;5.134;2023-04-26T05:59:05;102142.91;;;5.66;100.00
60373;BME280;46216;52.220;5.134;2023-04-26T06:01:31;102139.03;;;5.78;100.00
60373;BME280;46216;52.220;5.134;2023-04-26T06:03:56;102142.19;;;5.89;100.00
60373;BME280;46216;52.220;5.134;2023-04-26T06:06:22;102142.72;;;6.00;100.00
60373;BME280;46216;52.220;5.134;2023-04-26T06:08:47;102142.53;;;6.06;100.00
60373;BME280;46216;52.220;5.134;2023-04-26T06:11:12;102137.03;;;6.12;100.00
60373;BME280;46216;52.220;5.134;2023-04-26T06:13:38;102137.72;;;6.19;100.00
60373;BME280;46216;52.220;5.134;2023-04-26T06:16:03;102139.31;;;6.23;100.00
60373;BME280;46216;52.220;5.134;2023-04-26T06:18:29;102141.72;;;6.31;100.00
60373;BME280;46216;52.220;5.134;2023-04-26T06:20:54;102136.09;;;6.40;100.00
60373;BME280;46216;52.220;5.134;2023-04-26T06:23:19;102149.84;;;6.51;100.00
60373;BME280;46216;52.220;5.134;2023-04-26T06:25:45;102152.25;;;6.59;100.00
60373;BME280;46216;52.220;5.134;2023-04-26T06:28:11;102144.97;;;6.64;100.00
60373;BME280;46216;52.220;5.134;2023-04-26T06:30:36;102143.91;;;6.70;100.00
60373;BME280;46216;52.220;5.134;2023-04-26T06:33:02;102154.06;;;6.82;100.00
60373;BME280;46216;52.220;5.134;2023-04-26T06:35:27;102159.03;;;6.91;100.00
60373;BME280;46216;52.220;5.134;2023-04-26T06:37:53;102163.06;;;7.01;100.00
60373;BME280;46216;52.220;5.134;2023-04-26T06:40:18;102158.44;;;7.06;100.00
60373;BME280;46216;52.220;5.134;2023-04-26T06:42:43;102151.09;;;7.15;100.00
60373;BME280;46216;52.220;5.134;2023-04-26T06:45:09;102147.28;;;7.22;100.00
60373;BME280;46216;52.220;5.134;2023-04-26T06:47:35;102148.78;;;7.29;100.00
60373;BME280;46216;52.220;5.134;2023-04-26T06:50:02;102145.81;;;7.37;100.00
60373;BME280;46216;52.220;5.134;2023-04-26T06:52:28;102142.78;;;7.47;100.00
60373;BME280;46216;52.220;5.134;2023-04-26T06:54:54;102144.16;;;7.57;100.00
60373;BME280;46216;52.220;5.134;2023-04-26T06:57:19;102146.44;;;7.67;100.00
60373;BME280;46216;52.220;5.134;2023-04-26T06:59:45;102145.44;;;7.69;100.00
60373;BME280;46216;52.220;5.134;2023-04-26T07:02:10;102138.09;;;7.76;100.00
60373;BME280;46216;52.220;5.134;2023-04-26T07:04:35;102144.28;;;7.76;100.00
60373;BME280;46216;52.220;5.134;2023-04-26T07:07:01;102138.09;;;7.76;100.00
60373;BME280;46216;52.220;5.134;2023-04-26T07:09:27;102143.91;;;7.86;100.00
60373;BME280;46216;52.220;5.134;2023-04-26T07:11:52;102136.69;;;7.89;100.00
60373;BME280;46216;52.220;5.134;2023-04-26T07:14:17;102132.13;;;7.93;100.00
60373;BME280;46216;52.220;5.134;2023-04-26T07:16:43;102128.97;;;8.05;100.00
60373;BME280;46216;52.220;5.134;2023-04-26T07:19:08;102125.88;;;8.16;100.00
60373;BME280;46216;52.220;5.134;2023-04-26T07:21:35;102124.69;;;8.23;100.00
60373;BME280;46216;52.220;5.134;2023-04-26T07:24:00;102121.03;;;8.25;100.00
60373;BME280;46216;52.220;5.134;2023-04-26T07:26:26;102111.53;;;8.20;100.00
60373;BME280;46216;52.220;5.134;2023-04-26T07:28:51;102112.38;;;8.20;100.00
60373;BME280;46216;52.220;5.134;2023-04-26T07:31:17;102125.41;;;8.26;100.00
60373;BME280;46216;52.220;5.134;2023-04-26T07:33:43;102130.78;;;8.25;100.00
60373;BME280;46216;52.220;5.134;2023-04-26T07:36:08;102126.25;;;8.06;100.00
60373;BME280;46216;52.220;5.134;2023-04-26T07:38:34;102133.66;;;7.98;100.00
60373;BME280;46216;52.220;5.134;2023-04-26T07:40:59;102127.63;;;7.73;100.00
60373;BME280;46216;52.220;5.134;2023-04-26T07:43:29;102138.34;;;7.70;100.00
60373;BME280;46216;52.220;5.134;2023-04-26T07:45:58;102144.50;;;7.48;100.00
60373;BME280;46216;52.220;5.134;2023-04-26T07:48:24;102153.84;;;7.35;100.00
60373;BME280;46216;52.220;5.134;2023-04-26T07:50:49;102155.69;;;7.33;100.00
60373;BME280;46216;52.220;5.134;2023-04-26T07:53:14;102155.47;;;7.39;100.00
60373;BME280;46216;52.220;5.134;2023-04-26T07:55:40;102156.22;;;7.43;100.00
60373;BME280;46216;52.220;5.134;2023-04-26T07:58:05;102156.22;;;7.43;100.00
60373;BME280;46216;52.220;5.134;2023-04-26T08:00:32;102151.53;;;7.49;100.00
60373;BME280;46216;52.220;5.134;2023-04-26T08:02:57;102155.69;;;7.56;100.00
60373;BME280;46216;52.220;5.134;2023-04-26T08:05:22;102151.22;;;7.57;100.00
60373;BME280;46216;52.220;5.134;2023-04-26T08:07:49;102149.47;;;7.57;100.00
60373;BME280;46216;52.220;5.134;2023-04-26T08:10:14;102151.56;;;7.71;100.00
60373;BME280;46216;52.220;5.134;2023-04-26T08:12:40;102160.09;;;7.79;100.00
60373;BME280;46216;52.220;5.134;2023-04-26T08:15:05;102152.13;;;7.79;100.00
60373;BME280;46216;52.220;5.134;2023-04-26T08:17:31;102151.19;;;7.80;100.00
60373;BME280;46216;52.220;5.134;2023-04-26T08:19:57;102146.88;;;7.78;100.00
60373;BME280;46216;52.220;5.134;2023-04-26T08:22:23;102153.56;;;7.88;100.00
60373;BME280;46216;52.220;5.134;2023-04-26T08:24:53;102147.00;;;7.97;100.00
60373;BME280;46216;52.220;5.134;2023-04-26T08:27:19;102139.72;;;8.02;100.00
60373;BME280;46216;52.220;5.134;2023-04-26T08:29:45;102137.59;;;8.10;100.00
60373;BME280;46216;52.220;5.134;2023-04-26T08:32:11;102138.09;;;8.20;100.00
60373;BME280;46216;52.220;5.134;2023-04-26T08:34:36;102141.13;;;8.31;100.00
60373;BME280;46216;52.220;5.134;2023-04-26T08:37:01;102137.06;;;8.44;100.00
60373;BME280;46216;52.220;5.134;2023-04-26T08:39:27;102135.88;;;8.51;100.00
60373;BME280;46216;52.220;5.134;2023-04-26T08:41:53;102128.50;;;8.58;100.00
60373;BME280;46216;52.220;5.134;2023-04-26T08:44:23;102128.88;;;8.69;100.00
60373;BME280;46216;52.220;5.134;2023-04-26T08:49:53;102128.00;;;8.89;100.00
60373;BME280;46216;52.220;5.134;2023-04-26T08:52:27;102133.75;;;8.99;100.00
60373;BME280;46216;52.220;5.134;2023-04-26T08:54:55;102126.16;;;9.10;100.00
60373;BME280;46216;52.220;5.134;2023-04-26T08:57:22;102123.88;;;9.21;100.00
60373;BME280;46216;52.220;5.134;2023-04-26T08:59:48;102120.44;;;9.38;100.00
60373;BME280;46216;52.220;5.134;2023-04-26T09:02:17;102120.53;;;9.54;100.00
60373;BME280;46216;52.220;5.134;2023-04-26T09:04:46;102118.00;;;9.70;100.00
60373;BME280;46216;52.220;5.134;2023-04-26T09:07:19;102107.47;;;9.68;100.00
60373;BME280;46216;52.220;5.134;2023-04-26T09:09:47;102116.03;;;9.56;100.00
60373;BME280;46216;52.220;5.134;2023-04-26T09:12:14;102115.59;;;9.46;100.00
60373;BME280;46216;52.220;5.134;2023-04-26T09:14:41;102109.66;;;9.41;100.00
60373;BME280;46216;52.220;5.134;2023-04-26T09:19:51;102114.22;;;9.57;100.00
60373;BME280;46216;52.220;5.134;2023-04-26T09:22:47;102111.06;;;9.30;100.00
60373;BME280;46216;52.220;5.134;2023-04-26T09:25:15;102124.31;;;9.31;100.00
60373;BME280;46216;52.220;5.134;2023-04-26T09:27:42;102124.44;;;9.47;100.00
60373;BME280;46216;52.220;5.134;2023-04-26T09:30:16;102115.41;;;9.32;100.00
60373;BME280;46216;52.220;5.134;2023-04-26T09:35:07;102124.88;;;9.19;100.00
60373;BME280;46216;52.220;5.134;2023-04-26T09:37:33;102118.91;;;9.33;100.00
60373;BME280;46216;52.220;5.134;2023-04-26T09:39:58;102127.47;;;9.39;100.00
60373;BME280;46216;52.220;5.134;2023-04-26T09:42:23;102131.41;;;9.50;100.00
60373;BME280;46216;52.220;5.134;2023-04-26T09:44:49;102129.25;;;9.58;100.00
60373;BME280;46216;52.220;5.134;2023-04-26T09:47:15;102117.44;;;9.63;100.00
60373;BME280;46216;52.220;5.134;2023-04-26T09:49:48;102126.75;;;9.55;100.00
60373;BME280;46216;52.220;5.134;2023-04-26T09:52:15;102121.56;;;9.52;100.00
60373;BME280;46216;52.220;5.134;2023-04-26T09:54:48;102125.31;;;9.29;100.00
60373;BME280;46216;52.220;5.134;2023-04-26T09:57:16;102125.28;;;9.47;100.00
60373;BME280;46216;52.220;5.134;2023-04-26T09:59:49;102121.06;;;9.62;100.00
60373;BME280;46216;52.220;5.134;2023-04-26T10:02:24;102114.66;;;9.47;100.00
60373;BME280;46216;52.220;5.134;2023-04-26T10:04:52;102107.31;;;9.53;100.00
60373;BME280;46216;52.220;5.134;2023-04-26T10:07:19;102114.22;;;9.57;100.00
60373;BME280;46216;52.220;5.134;2023-04-26T10:09:45;102114.50;;;9.51;100.00
60373;BME280;46216;52.220;5.134;2023-04-26T10:12:12;102113.13;;;9.61;100.00
60373;BME280;46216;52.220;5.134;2023-04-26T10:14:38;102117.00;;;9.73;100.00
60373;BME280;46216;52.220;5.134;2023-04-26T10:17:04;102117.06;;;9.71;100.00
60373;BME280;46216;52.220;5.134;2023-04-26T10:19:31;102116.19;;;9.89;100.00
60373;BME280;46216;52.220;5.134;2023-04-26T10:22:10;102110.31;;;9.83;100.00
60373;BME280;46216;52.220;5.134;2023-04-26T10:24:38;102113.06;;;9.99;100.00
60373;BME280;46216;52.220;5.134;2023-04-26T10:27:03;102117.47;;;10.17;100.00
60373;BME280;46216;52.220;5.134;2023-04-26T10:32:21;102105.50;;;10.26;100.00
60373;BME280;46216;52.220;5.134;2023-04-26T10:35:09;102106.94;;;10.33;100.00
60373;BME280;46216;52.220;5.134;2023-04-26T10:38:18;102108.09;;;10.27;100.00
60373;BME280;46216;52.220;5.134;2023-04-26T10:40:42;102104.78;;;10.57;100.00
60373;BME280;46216;52.220;5.134;2023-04-26T10:45:36;102105.69;;;11.06;100.00
60373;BME280;46216;52.220;5.134;2023-04-26T11:01:31;102099.31;;;11.09;100.00
60373;BME280;46216;52.220;5.134;2023-04-26T11:06:23;102082.78;;;11.97;100.00
60373;BME280;46216;52.220;5.134;2023-04-26T11:08:48;102086.91;;;12.03;100.00
60373;BME280;46216;52.220;5.134;2023-04-26T11:11:15;102088.00;;;11.99;100.00
60373;BME280;46216;52.220;5.134;2023-04-26T11:13:44;102081.44;;;11.58;100.00
60373;BME280;46216;52.220;5.134;2023-04-26T11:16:12;102085.59;;;11.48;100.00
60373;BME280;46216;52.220;5.134;2023-04-26T11:18:44;102083.84;;;11.16;100.00
60373;BME280;46216;52.220;5.134;2023-04-26T11:21:11;102090.16;;;10.81;100.00
60373;BME280;46216;52.220;5.134;2023-04-26T11:23:39;102080.50;;;10.79;100.00
60373;BME280;46216;52.220;5.134;2023-04-26T11:26:05;102091.47;;;10.57;100.00
60373;BME280;46216;52.220;5.134;2023-04-26T11:28:34;102082.69;;;10.55;100.00
60373;BME280;46216;52.220;5.134;2023-04-26T11:31:00;102082.84;;;10.52;100.00
60373;BME280;46216;52.220;5.134;2023-04-26T11:33:26;102083.00;;;10.49;100.00
60373;BME280;46216;52.220;5.134;2023-04-26T11:35:53;102084.38;;;10.56;100.00
60373;BME280;46216;52.220;5.134;2023-04-26T11:38:27;102073.88;;;10.53;100.00
60373;BME280;46216;52.220;5.134;2023-04-26T11:40:57;102075.13;;;10.63;100.00
60373;BME280;46216;52.220;5.134;2023-04-26T11:43:36;102075.59;;;10.71;100.00
60373;BME280;46216;52.220;5.134;2023-04-26T11:46:03;102088.50;;;10.79;100.00
60373;BME280;46216;52.220;5.134;2023-04-26T11:48:29;102074.84;;;10.85;100.00
60373;BME280;46216;52.220;5.134;2023-04-26T11:50:58;102076.88;;;10.80;100.00
60373;BME280;46216;52.220;5.134;2023-04-26T11:53:24;102072.63;;;10.93;100.00
60373;BME280;46216;52.220;5.134;2023-04-26T11:55:50;102074.25;;;10.96;100.00
60373;BME280;46216;52.220;5.134;2023-04-26T11:58:16;102082.69;;;11.04;100.00
60373;BME280;46216;52.220;5.134;2023-04-26T12:00:54;102077.47;;;11.02;100.00
60373;BME280;46216;52.220;5.134;2023-04-26T12:03:21;102080.75;;;11.07;100.00
60373;BME280;46216;52.220;5.134;2023-04-26T12:05:52;102083.47;;;11.06;100.00
60373;BME280;46216;52.220;5.134;2023-04-26T12:08:23;102080.38;;;10.98;100.00
60373;BME280;46216;52.220;5.134;2023-04-26T12:10:48;102091.88;;;10.82;100.00
60373;BME280;46216;52.220;5.134;2023-04-26T12:13:13;102094.25;;;10.71;100.00
60373;BME280;46216;52.220;5.134;2023-04-26T12:15:39;102090.31;;;10.28;100.00
60373;BME280;46216;52.220;5.134;2023-04-26T12:18:06;102090.06;;;10.50;100.00
60373;BME280;46216;52.220;5.134;2023-04-26T12:20:36;102095.88;;;10.40;100.00
60373;BME280;46216;52.220;5.134;2023-04-26T12:23:07;102093.91;;;10.44;100.00
60373;BME280;46216;52.220;5.134;2023-04-26T12:25:33;102091.69;;;10.17;100.00
60373;BME280;46216;52.220;5.134;2023-04-26T12:27:59;102102.09;;;10.22;100.00
60373;BME280;46216;52.220;5.134;2023-04-26T12:30:27;102094.25;;;10.02;100.00
60373;BME280;46216;52.220;5.134;2023-04-26T12:32:53;102098.13;;;10.13;100.00
60373;BME280;46216;52.220;5.134;2023-04-26T12:35:18;102094.44;;;9.99;100.00
60373;BME280;46216;52.220;5.134;2023-04-26T12:37:44;102095.75;;;10.07;100.00
60373;BME280;46216;52.220;5.134;2023-04-26T12:40:10;102099.81;;;10.14;100.00
60373;BME280;46216;52.220;5.134;2023-04-26T12:42:36;102094.09;;;10.05;100.00
60373;BME280;46216;52.220;5.134;2023-04-26T12:45:02;102088.22;;;9.98;100.00
60373;BME280;46216;52.220;5.134;2023-04-26T12:47:29;102096.41;;;10.12;100.00
60373;BME280;46216;52.220;5.134;2023-04-26T12:49:55;102096.00;;;10.20;100.00
60373;BME280;46216;52.220;5.134;2023-04-26T12:52:20;102096.94;;;10.19;100.00
60373;BME280;46216;52.220;5.134;2023-04-26T12:54:46;102095.56;;;10.29;100.00
60373;BME280;46216;52.220;5.134;2023-04-26T12:57:13;102104.47;;;10.28;100.00
60373;BME280;46216;52.220;5.134;2023-04-26T12:59:39;102099.81;;;10.33;100.00
60373;BME280;46216;52.220;5.134;2023-04-26T13:02:04;102101.66;;;10.31;100.00
60373;BME280;46216;52.220;5.134;2023-04-26T13:04:29;102092.25;;;10.41;100.00
60373;BME280;46216;52.220;5.134;2023-04-26T13:06:55;102093.97;;;10.42;100.00
60373;BME280;46216;52.220;5.134;2023-04-26T13:09:20;102094.50;;;10.49;100.00
60373;BME280;46216;52.220;5.134;2023-04-26T13:11:46;102083.13;;;10.63;100.00
60373;BME280;46216;52.220;5.134;2023-04-26T13:14:11;102091.53;;;10.88;100.00